sensor_id;sensor_type;location;lat;lon;timestamp;temperature;humidity
58865;DHT22;45702;52.982;6.658;2023-09-08T00:02:13;19.90;99.90
58865;DHT22;45702;52.982;6.658;2023-09-08T00:04:47;19.80;99.90
58865;DHT22;45702;52.982;6.658;2023-09-08T00:07:17;19.80;99.90
58865;DHT22;45702;52.982;6.658;2023-09-08T00:09:43;19.80;99.90
58865;DHT22;45702;52.982;6.658;2023-09-08T00:12:09;19.70;99.90
58865;DHT22;45702;52.982;6.658;2023-09-08T00:14:35;19.70;99.90
58865;DHT22;45702;52.982;6.658;2023-09-08T00:17:00;19.60;99.90
58865;DHT22;45702;52.982;6.658;2023-09-08T00:19:26;19.60;99.90
58865;DHT22;45702;52.982;6.658;2023-09-08T00:21:52;19.50;99.90
58865;DHT22;45702;52.982;6.658;2023-09-08T00:24:18;19.50;99.90
58865;DHT22;45702;52.982;6.658;2023-09-08T00:26:44;19.50;99.90
58865;DHT22;45702;52.982;6.658;2023-09-08T00:29:10;19.40;99.90
58865;DHT22;45702;52.982;6.658;2023-09-08T00:31:35;19.40;99.90
58865;DHT22;45702;52.982;6.658;2023-09-08T00:34:01;19.30;99.90
58865;DHT22;45702;52.982;6.658;2023-09-08T00:36:27;19.20;99.90
58865;DHT22;45702;52.982;6.658;2023-09-08T00:38:53;19.20;99.90
58865;DHT22;45702;52.982;6.658;2023-09-08T00:41:18;19.20;99.90
58865;DHT22;45702;52.982;6.658;2023-09-08T00:43:44;19.10;99.90
58865;DHT22;45702;52.982;6.658;2023-09-08T00:46:10;19.10;99.90
58865;DHT22;45702;52.982;6.658;2023-09-08T00:48:37;19.00;99.90
58865;DHT22;45702;52.982;6.658;2023-09-08T00:51:03;18.90;99.90
58865;DHT22;45702;52.982;6.658;2023-09-08T00:53:31;18.90;99.90
58865;DHT22;45702;52.982;6.658;2023-09-08T00:55:57;18.80;99.90
58865;DHT22;45702;52.982;6.658;2023-09-08T00:58:24;18.80;99.90
58865;DHT22;45702;52.982;6.658;2023-09-08T01:00:50;18.70;99.90
58865;DHT22;45702;52.982;6.658;2023-09-08T01:03:15;18.70;99.90
58865;DHT22;45702;52.982;6.658;2023-09-08T01:05:41;18.70;99.90
58865;DHT22;45702;52.982;6.658;2023-09-08T01:08:08;18.60;99.90
58865;DHT22;45702;52.982;6.658;2023-09-08T01:10:34;18.50;99.90
58865;DHT22;45702;52.982;6.658;2023-09-08T01:13:02;18.60;99.90
58865;DHT22;45702;52.982;6.658;2023-09-08T01:15:28;18.50;99.90
58865;DHT22;45702;52.982;6.658;2023-09-08T01:17:54;18.50;99.90
58865;DHT22;45702;52.982;6.658;2023-09-08T01:20:27;18.40;99.90
58865;DHT22;45702;52.982;6.658;2023-09-08T01:25:29;18.30;99.90
58865;DHT22;45702;52.982;6.658;2023-09-08T01:27:57;18.20;99.90
58865;DHT22;45702;52.982;6.658;2023-09-08T01:30:25;18.20;99.90
58865;DHT22;45702;52.982;6.658;2023-09-08T01:32:53;18.20;99.90
58865;DHT22;45702;52.982;6.658;2023-09-08T01:35:19;18.20;99.90
58865;DHT22;45702;52.982;6.658;2023-09-08T01:37:46;18.10;99.90
58865;DHT22;45702;52.982;6.658;2023-09-08T01:40:13;18.10;99.90
58865;DHT22;45702;52.982;6.658;2023-09-08T01:42:39;18.00;99.90
58865;DHT22;45702;52.982;6.658;2023-09-08T01:45:05;18.00;99.90
58865;DHT22;45702;52.982;6.658;2023-09-08T01:47:32;17.90;99.90
58865;DHT22;45702;52.982;6.658;2023-09-08T01:49:58;17.90;99.90
58865;DHT22;45702;52.982;6.658;2023-09-08T01:52:24;17.90;99.90
58865;DHT22;45702;52.982;6.658;2023-09-08T01:54:50;17.80;99.90
58865;DHT22;45702;52.982;6.658;2023-09-08T01:57:16;17.80;99.90
58865;DHT22;45702;52.982;6.658;2023-09-08T01:59:42;17.80;99.90
58865;DHT22;45702;52.982;6.658;2023-09-08T02:02:10;17.70;99.90
58865;DHT22;45702;52.982;6.658;2023-09-08T02:04:36;17.70;99.90
58865;DHT22;45702;52.982;6.658;2023-09-08T02:07:02;17.70;99.90
58865;DHT22;45702;52.982;6.658;2023-09-08T02:09:37;17.60;99.90
58865;DHT22;45702;52.982;6.658;2023-09-08T02:12:03;17.60;99.90
58865;DHT22;45702;52.982;6.658;2023-09-08T02:14:29;17.60;99.90
58865;DHT22;45702;52.982;6.658;2023-09-08T02:16:56;17.50;99.90
58865;DHT22;45702;52.982;6.658;2023-09-08T02:19:22;17.50;99.90
58865;DHT22;45702;52.982;6.658;2023-09-08T02:21:48;17.50;99.90
58865;DHT22;45702;52.982;6.658;2023-09-08T02:24:14;17.50;99.90
58865;DHT22;45702;52.982;6.658;2023-09-08T02:26:40;17.40;99.90
58865;DHT22;45702;52.982;6.658;2023-09-08T02:29:06;17.50;99.90
58865;DHT22;45702;52.982;6.658;2023-09-08T02:31:33;17.50;99.90
58865;DHT22;45702;52.982;6.658;2023-09-08T02:33:58;17.40;99.90
58865;DHT22;45702;52.982;6.658;2023-09-08T02:36:24;17.40;99.90
58865;DHT22;45702;52.982;6.658;2023-09-08T02:38:54;17.40;99.90
58865;DHT22;45702;52.982;6.658;2023-09-08T02:41:20;18.30;99.90
58865;DHT22;45702;52.982;6.658;2023-09-08T02:43:46;17.40;99.90
58865;DHT22;45702;52.982;6.658;2023-09-08T02:46:12;17.30;99.90
58865;DHT22;45702;52.982;6.658;2023-09-08T02:48:38;17.30;99.90
58865;DHT22;45702;52.982;6.658;2023-09-08T02:51:03;17.30;99.90
58865;DHT22;45702;52.982;6.658;2023-09-08T02:53:29;17.30;99.90
58865;DHT22;45702;52.982;6.658;2023-09-08T02:55:56;17.30;99.90
58865;DHT22;45702;52.982;6.658;2023-09-08T02:58:22;17.30;99.90
58865;DHT22;45702;52.982;6.658;2023-09-08T03:00:48;17.30;99.90
58865;DHT22;45702;52.982;6.658;2023-09-08T03:03:14;17.30;99.90
58865;DHT22;45702;52.982;6.658;2023-09-08T03:05:40;17.30;99.90
58865;DHT22;45702;52.982;6.658;2023-09-08T03:08:05;17.30;99.90
58865;DHT22;45702;52.982;6.658;2023-09-08T03:10:32;17.30;99.90
58865;DHT22;45702;52.982;6.658;2023-09-08T03:13:00;17.40;99.90
58865;DHT22;45702;52.982;6.658;2023-09-08T03:15:26;17.40;99.90
58865;DHT22;45702;52.982;6.658;2023-09-08T03:17:57;17.60;99.90
58865;DHT22;45702;52.982;6.658;2023-09-08T03:20:27;17.40;99.90
58865;DHT22;45702;52.982;6.658;2023-09-08T03:22:54;17.50;99.90
58865;DHT22;45702;52.982;6.658;2023-09-08T03:25:20;17.40;99.90
58865;DHT22;45702;52.982;6.658;2023-09-08T03:27:46;17.40;99.90
58865;DHT22;45702;52.982;6.658;2023-09-08T03:30:12;17.50;99.90
58865;DHT22;45702;52.982;6.658;2023-09-08T03:32:38;17.40;99.90
58865;DHT22;45702;52.982;6.658;2023-09-08T03:35:04;17.40;99.90
58865;DHT22;45702;52.982;6.658;2023-09-08T03:37:36;17.40;99.90
58865;DHT22;45702;52.982;6.658;2023-09-08T03:40:02;17.40;99.90
58865;DHT22;45702;52.982;6.658;2023-09-08T03:42:30;17.50;99.90
58865;DHT22;45702;52.982;6.658;2023-09-08T03:44:55;17.40;99.90
58865;DHT22;45702;52.982;6.658;2023-09-08T03:47:21;17.40;99.90
58865;DHT22;45702;52.982;6.658;2023-09-08T03:49:47;17.40;99.90
58865;DHT22;45702;52.982;6.658;2023-09-08T03:52:12;17.40;99.90
58865;DHT22;45702;52.982;6.658;2023-09-08T03:54:40;17.40;99.90
58865;DHT22;45702;52.982;6.658;2023-09-08T03:57:05;17.40;99.90
58865;DHT22;45702;52.982;6.658;2023-09-08T03:59:31;17.40;99.90
58865;DHT22;45702;52.982;6.658;2023-09-08T04:01:57;17.40;99.90
58865;DHT22;45702;52.982;6.658;2023-09-08T04:04:23;17.40;99.90
58865;DHT22;45702;52.982;6.658;2023-09-08T04:06:48;17.40;99.90
58865;DHT22;45702;52.982;6.658;2023-09-08T04:09:14;17.40;99.90
58865;DHT22;45702;52.982;6.658;2023-09-08T04:11:40;17.40;99.90
58865;DHT22;45702;52.982;6.658;2023-09-08T04:14:05;17.30;99.90
58865;DHT22;45702;52.982;6.658;2023-09-08T04:16:31;17.30;99.90
58865;DHT22;45702;52.982;6.658;2023-09-08T04:18:57;17.20;99.90
58865;DHT22;45702;52.982;6.658;2023-09-08T04:21:22;17.20;99.90
58865;DHT22;45702;52.982;6.658;2023-09-08T04:23:48;17.10;99.90
58865;DHT22;45702;52.982;6.658;2023-09-08T04:26:14;17.10;99.90
58865;DHT22;45702;52.982;6.658;2023-09-08T04:28:39;17.00;99.90
58865;DHT22;45702;52.982;6.658;2023-09-08T04:31:05;17.00;99.90
58865;DHT22;45702;52.982;6.658;2023-09-08T04:33:31;16.90;99.90
58865;DHT22;45702;52.982;6.658;2023-09-08T04:35:56;16.90;99.90
58865;DHT22;45702;52.982;6.658;2023-09-08T04:38:22;16.90;99.90
58865;DHT22;45702;52.982;6.658;2023-09-08T04:40:48;16.90;99.90
58865;DHT22;45702;52.982;6.658;2023-09-08T04:43:14;16.80;99.90
58865;DHT22;45702;52.982;6.658;2023-09-08T04:45:39;16.70;99.90
58865;DHT22;45702;52.982;6.658;2023-09-08T04:48:05;16.70;99.90
58865;DHT22;45702;52.982;6.658;2023-09-08T04:50:31;16.60;99.90
58865;DHT22;45702;52.982;6.658;2023-09-08T04:52:56;16.60;99.90
58865;DHT22;45702;52.982;6.658;2023-09-08T04:55:22;16.50;99.90
58865;DHT22;45702;52.982;6.658;2023-09-08T04:57:48;16.40;99.90
58865;DHT22;45702;52.982;6.658;2023-09-08T05:00:14;16.50;99.90
58865;DHT22;45702;52.982;6.658;2023-09-08T05:02:40;16.50;99.90
58865;DHT22;45702;52.982;6.658;2023-09-08T05:05:06;16.40;99.90
58865;DHT22;45702;52.982;6.658;2023-09-08T05:07:31;16.40;99.90
58865;DHT22;45702;52.982;6.658;2023-09-08T05:09:57;16.40;99.90
58865;DHT22;45702;52.982;6.658;2023-09-08T05:12:23;16.40;99.90
58865;DHT22;45702;52.982;6.658;2023-09-08T05:14:49;16.40;99.90
58865;DHT22;45702;52.982;6.658;2023-09-08T05:17:15;16.30;99.90
58865;DHT22;45702;52.982;6.658;2023-09-08T05:19:40;16.30;99.90
58865;DHT22;45702;52.982;6.658;2023-09-08T05:22:06;16.40;99.90
58865;DHT22;45702;52.982;6.658;2023-09-08T05:24:35;16.40;99.90
58865;DHT22;45702;52.982;6.658;2023-09-08T05:27:00;16.40;99.90
58865;DHT22;45702;52.982;6.658;2023-09-08T05:29:26;16.50;99.90
58865;DHT22;45702;52.982;6.658;2023-09-08T05:31:52;16.50;99.90
58865;DHT22;45702;52.982;6.658;2023-09-08T05:34:18;16.50;99.90
58865;DHT22;45702;52.982;6.658;2023-09-08T05:36:43;16.50;99.90
58865;DHT22;45702;52.982;6.658;2023-09-08T05:39:09;16.60;99.90
58865;DHT22;45702;52.982;6.658;2023-09-08T05:41:36;16.60;99.90
58865;DHT22;45702;52.982;6.658;2023-09-08T05:44:01;16.60;99.90
58865;DHT22;45702;52.982;6.658;2023-09-08T05:46:27;16.60;99.90
58865;DHT22;45702;52.982;6.658;2023-09-08T05:48:53;16.70;99.90
58865;DHT22;45702;52.982;6.658;2023-09-08T05:51:19;16.70;99.90
58865;DHT22;45702;52.982;6.658;2023-09-08T05:53:44;16.80;99.90
58865;DHT22;45702;52.982;6.658;2023-09-08T05:56:10;16.80;99.90
58865;DHT22;45702;52.982;6.658;2023-09-08T05:58:36;16.80;99.90
58865;DHT22;45702;52.982;6.658;2023-09-08T06:01:02;16.90;99.90
58865;DHT22;45702;52.982;6.658;2023-09-08T06:03:28;17.10;99.90
58865;DHT22;45702;52.982;6.658;2023-09-08T06:05:55;17.20;99.90
58865;DHT22;45702;52.982;6.658;2023-09-08T06:08:20;17.30;99.90
58865;DHT22;45702;52.982;6.658;2023-09-08T06:10:46;17.30;99.90
58865;DHT22;45702;52.982;6.658;2023-09-08T06:13:12;17.40;99.90
58865;DHT22;45702;52.982;6.658;2023-09-08T06:15:38;17.50;99.90
58865;DHT22;45702;52.982;6.658;2023-09-08T06:18:04;17.50;99.90
58865;DHT22;45702;52.982;6.658;2023-09-08T06:20:29;17.60;99.90
58865;DHT22;45702;52.982;6.658;2023-09-08T06:22:55;17.70;99.90
58865;DHT22;45702;52.982;6.658;2023-09-08T06:25:21;17.80;99.90
58865;DHT22;45702;52.982;6.658;2023-09-08T06:27:46;17.80;99.90
58865;DHT22;45702;52.982;6.658;2023-09-08T06:30:12;17.90;99.90
58865;DHT22;45702;52.982;6.658;2023-09-08T06:32:43;18.00;99.90
58865;DHT22;45702;52.982;6.658;2023-09-08T06:35:09;18.10;99.90
58865;DHT22;45702;52.982;6.658;2023-09-08T06:37:36;18.20;99.90
58865;DHT22;45702;52.982;6.658;2023-09-08T06:40:03;18.30;99.90
58865;DHT22;45702;52.982;6.658;2023-09-08T06:42:29;18.40;99.90
58865;DHT22;45702;52.982;6.658;2023-09-08T06:44:54;18.50;99.90
58865;DHT22;45702;52.982;6.658;2023-09-08T06:47:20;18.60;99.90
58865;DHT22;45702;52.982;6.658;2023-09-08T06:49:46;18.60;99.90
58865;DHT22;45702;52.982;6.658;2023-09-08T06:52:12;18.70;99.90
58865;DHT22;45702;52.982;6.658;2023-09-08T06:54:38;18.80;99.90
58865;DHT22;45702;52.982;6.658;2023-09-08T06:57:04;18.80;99.90
58865;DHT22;45702;52.982;6.658;2023-09-08T06:59:29;18.90;99.90
58865;DHT22;45702;52.982;6.658;2023-09-08T07:01:55;19.00;99.90
58865;DHT22;45702;52.982;6.658;2023-09-08T07:04:21;19.00;99.90
58865;DHT22;45702;52.982;6.658;2023-09-08T07:06:47;19.10;99.90
58865;DHT22;45702;52.982;6.658;2023-09-08T07:09:12;19.20;99.90
58865;DHT22;45702;52.982;6.658;2023-09-08T07:11:38;19.20;99.90
58865;DHT22;45702;52.982;6.658;2023-09-08T07:14:04;19.30;99.90
58865;DHT22;45702;52.982;6.658;2023-09-08T07:16:29;19.40;99.90
58865;DHT22;45702;52.982;6.658;2023-09-08T07:18:55;19.50;99.90
58865;DHT22;45702;52.982;6.658;2023-09-08T07:21:21;19.50;99.90
58865;DHT22;45702;52.982;6.658;2023-09-08T07:23:47;19.60;99.90
58865;DHT22;45702;52.982;6.658;2023-09-08T07:26:12;19.70;99.90
58865;DHT22;45702;52.982;6.658;2023-09-08T07:28:38;19.80;99.90
58865;DHT22;45702;52.982;6.658;2023-09-08T07:31:05;19.80;99.90
58865;DHT22;45702;52.982;6.658;2023-09-08T07:33:31;19.90;99.90
58865;DHT22;45702;52.982;6.658;2023-09-08T07:35:57;20.00;99.90
58865;DHT22;45702;52.982;6.658;2023-09-08T07:38:28;20.10;99.90
58865;DHT22;45702;52.982;6.658;2023-09-08T07:40:54;20.20;99.90
58865;DHT22;45702;52.982;6.658;2023-09-08T07:43:19;20.30;99.90
58865;DHT22;45702;52.982;6.658;2023-09-08T07:45:45;20.40;99.90
58865;DHT22;45702;52.982;6.658;2023-09-08T07:48:10;20.50;99.90
58865;DHT22;45702;52.982;6.658;2023-09-08T07:50:36;20.60;99.90
58865;DHT22;45702;52.982;6.658;2023-09-08T07:53:02;20.70;99.90
58865;DHT22;45702;52.982;6.658;2023-09-08T07:55:28;20.80;99.90
58865;DHT22;45702;52.982;6.658;2023-09-08T07:57:55;20.90;99.90
58865;DHT22;45702;52.982;6.658;2023-09-08T08:00:20;21.10;99.90
58865;DHT22;45702;52.982;6.658;2023-09-08T08:02:48;21.20;99.90
58865;DHT22;45702;52.982;6.658;2023-09-08T08:05:14;21.30;99.90
58865;DHT22;45702;52.982;6.658;2023-09-08T08:07:42;21.50;99.90
58865;DHT22;45702;52.982;6.658;2023-09-08T08:10:08;21.60;99.90
58865;DHT22;45702;52.982;6.658;2023-09-08T08:12:34;21.80;99.90
58865;DHT22;45702;52.982;6.658;2023-09-08T08:15:00;22.00;99.90
58865;DHT22;45702;52.982;6.658;2023-09-08T08:17:25;22.20;99.90
58865;DHT22;45702;52.982;6.658;2023-09-08T08:19:53;22.30;99.90
58865;DHT22;45702;52.982;6.658;2023-09-08T08:22:19;22.50;99.90
58865;DHT22;45702;52.982;6.658;2023-09-08T08:24:45;22.70;99.90
58865;DHT22;45702;52.982;6.658;2023-09-08T08:27:11;22.80;99.90
58865;DHT22;45702;52.982;6.658;2023-09-08T08:29:37;23.00;99.90
58865;DHT22;45702;52.982;6.658;2023-09-08T08:32:03;23.10;99.90
58865;DHT22;45702;52.982;6.658;2023-09-08T08:34:28;23.30;99.90
58865;DHT22;45702;52.982;6.658;2023-09-08T08:36:54;23.40;99.90
58865;DHT22;45702;52.982;6.658;2023-09-08T08:39:20;23.60;99.90
58865;DHT22;45702;52.982;6.658;2023-09-08T08:41:45;23.70;99.40
58865;DHT22;45702;52.982;6.658;2023-09-08T08:44:11;23.90;98.60
58865;DHT22;45702;52.982;6.658;2023-09-08T08:46:37;24.20;97.90
58865;DHT22;45702;52.982;6.658;2023-09-08T08:49:04;24.30;97.40
58865;DHT22;45702;52.982;6.658;2023-09-08T08:51:31;24.50;96.30
58865;DHT22;45702;52.982;6.658;2023-09-08T08:53:57;24.60;96.00
58865;DHT22;45702;52.982;6.658;2023-09-08T08:56:23;24.80;94.10
58865;DHT22;45702;52.982;6.658;2023-09-08T08:58:49;24.90;93.70
58865;DHT22;45702;52.982;6.658;2023-09-08T09:01:18;25.10;92.90
58865;DHT22;45702;52.982;6.658;2023-09-08T09:03:49;25.20;91.10
58865;DHT22;45702;52.982;6.658;2023-09-08T09:06:15;25.30;88.70
58865;DHT22;45702;52.982;6.658;2023-09-08T09:08:43;25.50;86.30
58865;DHT22;45702;52.982;6.658;2023-09-08T09:11:09;25.60;85.60
58865;DHT22;45702;52.982;6.658;2023-09-08T09:13:35;25.70;86.50
58865;DHT22;45702;52.982;6.658;2023-09-08T09:16:01;25.80;85.00
58865;DHT22;45702;52.982;6.658;2023-09-08T09:18:29;25.90;81.90
58865;DHT22;45702;52.982;6.658;2023-09-08T09:20:57;26.10;82.70
58865;DHT22;45702;52.982;6.658;2023-09-08T09:23:28;26.20;81.60
58865;DHT22;45702;52.982;6.658;2023-09-08T09:25:54;26.30;78.10
58865;DHT22;45702;52.982;6.658;2023-09-08T09:28:20;26.40;77.20
58865;DHT22;45702;52.982;6.658;2023-09-08T09:30:47;26.50;75.70
58865;DHT22;45702;52.982;6.658;2023-09-08T09:33:14;26.50;75.40
58865;DHT22;45702;52.982;6.658;2023-09-08T09:38:12;26.70;75.40
58865;DHT22;45702;52.982;6.658;2023-09-08T09:40:38;26.80;75.20
58865;DHT22;45702;52.982;6.658;2023-09-08T09:43:05;26.90;73.80
58865;DHT22;45702;52.982;6.658;2023-09-08T09:45:35;27.00;74.60
58865;DHT22;45702;52.982;6.658;2023-09-08T09:48:05;27.10;73.30
58865;DHT22;45702;52.982;6.658;2023-09-08T09:50:34;27.10;71.90
58865;DHT22;45702;52.982;6.658;2023-09-08T09:53:11;27.20;70.50
58865;DHT22;45702;52.982;6.658;2023-09-08T09:55:39;27.30;71.90
58865;DHT22;45702;52.982;6.658;2023-09-08T09:58:05;27.40;71.40
58865;DHT22;45702;52.982;6.658;2023-09-08T10:00:32;27.50;70.50
58865;DHT22;45702;52.982;6.658;2023-09-08T10:02:59;27.60;71.20
58865;DHT22;45702;52.982;6.658;2023-09-08T10:05:25;27.70;69.10
58865;DHT22;45702;52.982;6.658;2023-09-08T10:07:51;27.60;69.80
58865;DHT22;45702;52.982;6.658;2023-09-08T10:10:18;27.70;69.30
58865;DHT22;45702;52.982;6.658;2023-09-08T10:12:46;27.70;68.10
58865;DHT22;45702;52.982;6.658;2023-09-08T10:15:18;27.70;68.50
58865;DHT22;45702;52.982;6.658;2023-09-08T10:17:45;27.80;67.30
58865;DHT22;45702;52.982;6.658;2023-09-08T10:20:13;27.80;66.80
58865;DHT22;45702;52.982;6.658;2023-09-08T10:22:42;27.80;64.50
58865;DHT22;45702;52.982;6.658;2023-09-08T10:25:09;27.90;64.90
58865;DHT22;45702;52.982;6.658;2023-09-08T10:27:38;28.00;64.50
58865;DHT22;45702;52.982;6.658;2023-09-08T10:30:05;28.10;63.80
58865;DHT22;45702;52.982;6.658;2023-09-08T10:32:33;28.20;63.00
58865;DHT22;45702;52.982;6.658;2023-09-08T10:35:02;28.20;62.90
58865;DHT22;45702;52.982;6.658;2023-09-08T10:37:29;28.20;63.40
58865;DHT22;45702;52.982;6.658;2023-09-08T10:40:21;28.30;63.80
58865;DHT22;45702;52.982;6.658;2023-09-08T10:42:48;28.30;64.70
58865;DHT22;45702;52.982;6.658;2023-09-08T10:45:18;28.30;64.10
58865;DHT22;45702;52.982;6.658;2023-09-08T10:50:33;28.50;64.70
58865;DHT22;45702;52.982;6.658;2023-09-08T10:53:06;28.50;64.30
58865;DHT22;45702;52.982;6.658;2023-09-08T10:55:39;28.50;63.20
58865;DHT22;45702;52.982;6.658;2023-09-08T10:58:06;28.60;62.90
58865;DHT22;45702;52.982;6.658;2023-09-08T11:00:52;28.60;63.20
58865;DHT22;45702;52.982;6.658;2023-09-08T11:03:26;28.70;63.40
58865;DHT22;45702;52.982;6.658;2023-09-08T11:05:52;28.70;62.00
58865;DHT22;45702;52.982;6.658;2023-09-08T11:08:18;28.80;62.50
58865;DHT22;45702;52.982;6.658;2023-09-08T11:10:44;28.90;62.20
58865;DHT22;45702;52.982;6.658;2023-09-08T11:13:10;28.90;61.80
58865;DHT22;45702;52.982;6.658;2023-09-08T11:15:37;29.00;61.40
58865;DHT22;45702;52.982;6.658;2023-09-08T11:18:06;29.00;61.50
58865;DHT22;45702;52.982;6.658;2023-09-08T11:20:33;29.00;61.00
58865;DHT22;45702;52.982;6.658;2023-09-08T11:22:59;29.10;61.50
58865;DHT22;45702;52.982;6.658;2023-09-08T11:25:25;29.20;61.20
58865;DHT22;45702;52.982;6.658;2023-09-08T11:27:51;29.20;60.20
58865;DHT22;45702;52.982;6.658;2023-09-08T11:30:17;29.30;59.10
58865;DHT22;45702;52.982;6.658;2023-09-08T11:32:43;29.30;56.30
58865;DHT22;45702;52.982;6.658;2023-09-08T11:35:10;29.40;55.70
58865;DHT22;45702;52.982;6.658;2023-09-08T11:37:37;29.40;53.80
58865;DHT22;45702;52.982;6.658;2023-09-08T11:40:04;29.40;54.60
58865;DHT22;45702;52.982;6.658;2023-09-08T11:42:41;29.50;56.00
58865;DHT22;45702;52.982;6.658;2023-09-08T11:47:42;29.70;55.60
58865;DHT22;45702;52.982;6.658;2023-09-08T11:50:10;29.70;55.10
58865;DHT22;45702;52.982;6.658;2023-09-08T11:52:48;29.90;53.80
58865;DHT22;45702;52.982;6.658;2023-09-08T11:55:15;29.90;53.30
58865;DHT22;45702;52.982;6.658;2023-09-08T11:57:42;30.10;54.10
58865;DHT22;45702;52.982;6.658;2023-09-08T12:00:09;30.20;52.60
58865;DHT22;45702;52.982;6.658;2023-09-08T12:02:40;30.20;52.90
58865;DHT22;45702;52.982;6.658;2023-09-08T12:05:05;30.20;52.70
58865;DHT22;45702;52.982;6.658;2023-09-08T12:07:37;30.20;53.10
58865;DHT22;45702;52.982;6.658;2023-09-08T12:10:10;30.30;53.50
58865;DHT22;45702;52.982;6.658;2023-09-08T12:12:53;30.40;53.60
58865;DHT22;45702;52.982;6.658;2023-09-08T12:15:37;30.50;53.40
58865;DHT22;45702;52.982;6.658;2023-09-08T12:18:08;30.60;52.60
58865;DHT22;45702;52.982;6.658;2023-09-08T12:20:35;30.50;52.50
58865;DHT22;45702;52.982;6.658;2023-09-08T12:23:04;30.50;53.40
58865;DHT22;45702;52.982;6.658;2023-09-08T12:25:30;30.50;54.20
58865;DHT22;45702;52.982;6.658;2023-09-08T12:28:01;30.50;54.20
58865;DHT22;45702;52.982;6.658;2023-09-08T12:30:28;30.50;54.50
58865;DHT22;45702;52.982;6.658;2023-09-08T12:32:59;30.50;54.10
58865;DHT22;45702;52.982;6.658;2023-09-08T12:35:25;30.50;52.80
58865;DHT22;45702;52.982;6.658;2023-09-08T12:38:03;30.40;51.20
58865;DHT22;45702;52.982;6.658;2023-09-08T12:40:29;30.40;50.90
58865;DHT22;45702;52.982;6.658;2023-09-08T12:42:56;30.30;52.30
58865;DHT22;45702;52.982;6.658;2023-09-08T12:45:24;30.30;52.00
58865;DHT22;45702;52.982;6.658;2023-09-08T12:47:50;30.30;52.40
58865;DHT22;45702;52.982;6.658;2023-09-08T12:50:17;30.20;52.60
58865;DHT22;45702;52.982;6.658;2023-09-08T12:52:43;30.30;52.70
58865;DHT22;45702;52.982;6.658;2023-09-08T12:55:08;30.30;51.80
58865;DHT22;45702;52.982;6.658;2023-09-08T12:57:56;30.40;50.80
58865;DHT22;45702;52.982;6.658;2023-09-08T13:00:23;30.60;50.80
58865;DHT22;45702;52.982;6.658;2023-09-08T13:02:49;30.80;49.90
58865;DHT22;45702;52.982;6.658;2023-09-08T13:05:14;30.60;50.00
58865;DHT22;45702;52.982;6.658;2023-09-08T13:07:40;30.50;50.30
58865;DHT22;45702;52.982;6.658;2023-09-08T13:10:07;30.40;51.20
58865;DHT22;45702;52.982;6.658;2023-09-08T13:12:33;30.30;51.60
58865;DHT22;45702;52.982;6.658;2023-09-08T13:15:00;30.20;52.10
58865;DHT22;45702;52.982;6.658;2023-09-08T13:17:25;30.10;52.00
58865;DHT22;45702;52.982;6.658;2023-09-08T13:19:51;30.20;51.20
58865;DHT22;45702;52.982;6.658;2023-09-08T13:22:18;30.10;51.70
58865;DHT22;45702;52.982;6.658;2023-09-08T13:24:44;30.20;51.80
58865;DHT22;45702;52.982;6.658;2023-09-08T13:27:09;30.20;51.50
58865;DHT22;45702;52.982;6.658;2023-09-08T13:29:36;30.30;51.60
58865;DHT22;45702;52.982;6.658;2023-09-08T13:32:04;30.20;51.60
58865;DHT22;45702;52.982;6.658;2023-09-08T13:34:29;30.20;51.70
58865;DHT22;45702;52.982;6.658;2023-09-08T13:36:55;30.20;51.40
58865;DHT22;45702;52.982;6.658;2023-09-08T13:39:21;30.20;51.60
58865;DHT22;45702;52.982;6.658;2023-09-08T13:41:54;30.20;51.80
58865;DHT22;45702;52.982;6.658;2023-09-08T13:44:23;30.20;52.20
58865;DHT22;45702;52.982;6.658;2023-09-08T13:46:50;30.50;52.80
58865;DHT22;45702;52.982;6.658;2023-09-08T13:49:16;30.80;52.80
58865;DHT22;45702;52.982;6.658;2023-09-08T13:51:43;30.80;52.30
58865;DHT22;45702;52.982;6.658;2023-09-08T13:54:09;30.80;51.20
58865;DHT22;45702;52.982;6.658;2023-09-08T13:56:35;30.80;50.70
58865;DHT22;45702;52.982;6.658;2023-09-08T13:59:01;30.70;51.10
58865;DHT22;45702;52.982;6.658;2023-09-08T14:01:27;30.60;51.00
58865;DHT22;45702;52.982;6.658;2023-09-08T14:03:57;30.60;51.20
58865;DHT22;45702;52.982;6.658;2023-09-08T14:06:23;30.50;50.70
58865;DHT22;45702;52.982;6.658;2023-09-08T14:08:52;30.40;51.10
58865;DHT22;45702;52.982;6.658;2023-09-08T14:11:18;30.40;51.80
58865;DHT22;45702;52.982;6.658;2023-09-08T14:13:43;30.40;51.30
58865;DHT22;45702;52.982;6.658;2023-09-08T14:16:11;30.20;51.00
58865;DHT22;45702;52.982;6.658;2023-09-08T14:18:38;30.20;51.50
58865;DHT22;45702;52.982;6.658;2023-09-08T14:21:04;30.20;51.50
58865;DHT22;45702;52.982;6.658;2023-09-08T14:23:30;30.30;51.60
58865;DHT22;45702;52.982;6.658;2023-09-08T14:25:56;30.30;51.00
58865;DHT22;45702;52.982;6.658;2023-09-08T14:28:22;30.30;49.90
58865;DHT22;45702;52.982;6.658;2023-09-08T14:30:49;30.20;49.00
58865;DHT22;45702;52.982;6.658;2023-09-08T14:33:16;30.20;49.10
58865;DHT22;45702;52.982;6.658;2023-09-08T14:35:43;30.20;50.10
58865;DHT22;45702;52.982;6.658;2023-09-08T14:38:09;30.20;50.50
58865;DHT22;45702;52.982;6.658;2023-09-08T14:40:35;30.20;50.40
58865;DHT22;45702;52.982;6.658;2023-09-08T14:43:01;30.20;49.70
58865;DHT22;45702;52.982;6.658;2023-09-08T14:45:26;30.20;49.20
58865;DHT22;45702;52.982;6.658;2023-09-08T14:47:53;30.20;49.50
58865;DHT22;45702;52.982;6.658;2023-09-08T14:50:19;30.20;49.80
58865;DHT22;45702;52.982;6.658;2023-09-08T14:52:45;30.20;49.20
58865;DHT22;45702;52.982;6.658;2023-09-08T14:55:11;30.20;49.60
58865;DHT22;45702;52.982;6.658;2023-09-08T14:57:37;30.20;48.50
58865;DHT22;45702;52.982;6.658;2023-09-08T15:00:07;30.20;48.80
58865;DHT22;45702;52.982;6.658;2023-09-08T15:02:33;30.20;49.10
58865;DHT22;45702;52.982;6.658;2023-09-08T15:04:59;30.20;48.90
58865;DHT22;45702;52.982;6.658;2023-09-08T15:07:25;30.20;49.20
58865;DHT22;45702;52.982;6.658;2023-09-08T15:09:50;30.20;50.20
58865;DHT22;45702;52.982;6.658;2023-09-08T15:12:16;30.20;49.10
58865;DHT22;45702;52.982;6.658;2023-09-08T15:14:42;30.20;49.00
58865;DHT22;45702;52.982;6.658;2023-09-08T15:17:10;30.40;49.00
58865;DHT22;45702;52.982;6.658;2023-09-08T15:19:36;30.40;49.70
58865;DHT22;45702;52.982;6.658;2023-09-08T15:22:02;30.50;49.40
58865;DHT22;45702;52.982;6.658;2023-09-08T15:24:28;30.70;49.50
58865;DHT22;45702;52.982;6.658;2023-09-08T15:26:53;30.80;48.40
58865;DHT22;45702;52.982;6.658;2023-09-08T15:29:19;31.00;48.20
58865;DHT22;45702;52.982;6.658;2023-09-08T15:31:45;31.40;47.70
58865;DHT22;45702;52.982;6.658;2023-09-08T15:34:12;31.90;47.90
58865;DHT22;45702;52.982;6.658;2023-09-08T15:36:38;32.50;47.30
58865;DHT22;45702;52.982;6.658;2023-09-08T15:39:04;32.70;46.80